Time;durP1;ratioP1;P1;durP2;ratioP2;P2;SDS_P1;SDS_P2;PMS_P1;PMS_P2;Temp;Humidity;BMP_temperature;BMP_pressure;BME280_temperature;BME280_humidity;BME280_pressure;Samples;Min_cycle;Max_cycle;Signal;HPM_P1;HPM_P2
2023/09/19 00:01:20;;;;;;;106.63;54.85;;;18.80;92.40;;;;;;4950712;28;89999;-45
2023/09/19 00:03:46;;;;;;;109.65;54.80;;;18.70;92.60;;;;;;4947526;28;90599;-45
2023/09/19 00:06:15;;;;;;;110.35;54.88;;;18.80;92.40;;;;;;4948834;28;89911;-45
2023/09/19 00:08:44;;;;;;;109.63;54.80;;;18.80;92.40;;;;;;4944879;28;93354;-45
2023/09/19 00:11:10;;;;;;;111.60;55.10;;;18.70;92.50;;;;;;4952679;28;90089;-45
2023/09/19 00:13:36;;;;;;;109.93;54.78;;;18.80;92.30;;;;;;4949605;28;90092;-45
2023/09/19 00:16:08;;;;;;;107.60;54.65;;;18.70;92.30;;;;;;4953145;28;89557;-46
2023/09/19 00:18:34;;;;;;;107.30;55.00;;;18.70;92.50;;;;;;4954427;28;89594;-49
2023/09/19 00:21:00;;;;;;;108.05;54.92;;;18.70;93.20;;;;;;4947751;28;89938;-48
2023/09/19 00:23:26;;;;;;;106.78;54.45;;;18.70;92.30;;;;;;4948421;28;91953;-48
2023/09/19 00:25:57;;;;;;;107.35;54.80;;;18.70;92.50;;;;;;4944157;28;91038;-45
2023/09/19 00:28:23;;;;;;;109.80;54.77;;;18.70;92.20;;;;;;4954406;28;91505;-46
2023/09/19 00:30:51;;;;;;;108.00;55.03;;;18.70;92.50;;;;;;4944135;28;91163;-48
2023/09/19 00:33:20;;;;;;;107.55;55.00;;;18.60;92.40;;;;;;4950996;28;92499;-47
2023/09/19 00:35:54;;;;;;;108.00;54.83;;;18.60;92.40;;;;;;4949299;28;89446;-45
2023/09/19 00:38:22;;;;;;;106.32;54.45;;;18.60;92.70;;;;;;4949082;28;89891;-50
2023/09/19 00:40:49;;;;;;;107.80;54.60;;;18.60;92.40;;;;;;4956806;28;89774;-45
2023/09/19 00:43:16;;;;;;;108.20;54.75;;;18.60;92.40;;;;;;4945637;28;90698;-46
2023/09/19 00:45:45;;;;;;;107.47;54.70;;;18.60;92.20;;;;;;4943192;28;90908;-46
2023/09/19 00:48:11;;;;;;;106.78;54.70;;;18.60;92.30;;;;;;4941601;28;92057;-45
2023/09/19 00:50:41;;;;;;;106.80;54.63;;;18.60;92.70;;;;;;4949043;28;92178;-45
2023/09/19 00:53:08;;;;;;;107.15;54.30;;;18.60;92.90;;;;;;4951915;28;89907;-47
2023/09/19 00:55:34;;;;;;;107.53;54.75;;;18.60;92.30;;;;;;4950312;28;90076;-46
2023/09/19 00:58:00;;;;;;;106.78;54.65;;;18.60;92.80;;;;;;4954096;28;90431;-45
2023/09/19 01:00:26;;;;;;;108.70;54.47;;;18.60;92.50;;;;;;4953388;28;91366;-48
2023/09/19 01:02:52;;;;;;;106.78;54.25;;;18.60;92.20;;;;;;4949150;28;90433;-47
2023/09/19 01:07:49;;;;;;;106.20;54.90;;;18.70;92.30;;;;;;4939544;28;91152;-86
2023/09/19 01:10:19;;;;;;;105.85;54.60;;;18.70;92.40;;;;;;4937016;28;89255;-87
2023/09/19 01:13:30;;;;;;;107.68;54.65;;;18.70;92.50;;;;;;4923552;28;93641;-86
2023/09/19 01:16:07;;;;;;;105.53;54.53;;;18.70;92.50;;;;;;4938374;28;92953;-86
2023/09/19 01:18:40;;;;;;;108.25;55.00;;;18.70;92.10;;;;;;4938947;28;89468;-86
2023/09/19 01:21:18;;;;;;;109.85;54.75;;;18.70;92.40;;;;;;4936161;28;90323;-86
2023/09/19 01:23:50;;;;;;;106.35;54.75;;;18.70;92.70;;;;;;4935549;28;91280;-85
2023/09/19 01:26:46;;;;;;;106.22;54.50;;;18.70;92.20;;;;;;4939571;28;89867;-86
2023/09/19 01:29:34;;;;;;;107.60;54.45;;;18.70;92.40;;;;;;4939431;28;89977;-86
2023/09/19 01:32:04;;;;;;;108.03;54.45;;;18.70;92.10;;;;;;4935634;28;89304;-86
2023/09/19 01:34:49;;;;;;;107.20;54.53;;;18.70;91.70;;;;;;4937263;28;91497;-85
2023/09/19 01:37:25;;;;;;;107.30;54.72;;;18.70;91.60;;;;;;4936119;28;89948;-84
2023/09/19 01:40:08;;;;;;;105.07;54.50;;;18.70;91.40;;;;;;4933785;28;90371;-85
2023/09/19 01:42:48;;;;;;;105.43;54.30;;;18.70;91.60;;;;;;4917235;28;91246;-85
2023/09/19 01:45:32;;;;;;;106.10;54.10;;;18.70;91.70;;;;;;4935107;28;90513;-85
2023/09/19 01:48:15;;;;;;;106.88;54.25;;;18.70;91.50;;;;;;4919144;28;92533;-85
2023/09/19 01:50:49;;;;;;;106.25;54.28;;;18.70;91.20;;;;;;4933698;28;91126;-85
2023/09/19 01:53:36;;;;;;;107.43;54.33;;;18.70;91.50;;;;;;4933587;28;94104;-85
2023/09/19 01:56:07;;;;;;;105.45;54.55;;;18.60;91.20;;;;;;4921935;28;93089;-86
2023/09/19 01:58:48;;;;;;;107.32;54.65;;;18.60;92.00;;;;;;4937499;28;89796;-85
2023/09/19 02:01:18;;;;;;;105.90;54.47;;;18.60;91.70;;;;;;4937993;28;89815;-86
2023/09/19 02:03:45;;;;;;;106.10;54.27;;;18.60;91.10;;;;;;4933749;28;89316;-85
2023/09/19 02:06:18;;;;;;;105.88;54.20;;;18.60;91.60;;;;;;4935177;28;91280;-85
2023/09/19 02:08:45;;;;;;;106.45;54.63;;;18.60;91.80;;;;;;4935859;28;90650;-83
2023/09/19 02:11:12;;;;;;;106.35;54.63;;;18.60;91.70;;;;;;4935848;28;89911;-83
2023/09/19 02:13:38;;;;;;;106.57;53.90;;;18.50;91.70;;;;;;4936806;28;89748;-81
2023/09/19 02:16:04;;;;;;;108.65;53.97;;;18.60;91.40;;;;;;4931408;28;90737;-81
2023/09/19 02:18:30;;;;;;;105.72;54.13;;;18.50;92.10;;;;;;4933175;28;90221;-80
2023/09/19 02:20:58;;;;;;;107.85;54.67;;;18.50;91.70;;;;;;4924851;28;90476;-82
2023/09/19 02:23:25;;;;;;;106.95;54.33;;;18.50;91.70;;;;;;4914158;28;89591;-84
2023/09/19 02:25:54;;;;;;;107.15;54.50;;;18.50;91.70;;;;;;4935069;28;90149;-84
2023/09/19 02:28:20;;;;;;;109.13;54.20;;;18.50;91.90;;;;;;4934255;28;90100;-83
2023/09/19 02:30:50;;;;;;;106.72;54.35;;;18.50;91.70;;;;;;4930081;28;90834;-84
2023/09/19 02:33:17;;;;;;;105.95;54.20;;;18.50;92.20;;;;;;4933135;28;89202;-87
2023/09/19 02:35:42;;;;;;;107.00;54.28;;;18.50;92.30;;;;;;4936019;28;89838;-88
2023/09/19 02:38:11;;;;;;;107.22;54.40;;;18.50;92.30;;;;;;4918262;28;92648;-90
2023/09/19 02:40:37;;;;;;;107.53;54.17;;;18.50;92.00;;;;;;4934689;28;89224;-89
2023/09/19 02:43:03;;;;;;;105.88;54.47;;;18.50;91.50;;;;;;4937204;28;89948;-88
2023/09/19 02:45:29;;;;;;;106.93;54.25;;;18.50;91.80;;;;;;4937530;28;90023;-89
2023/09/19 02:47:55;;;;;;;108.10;54.17;;;18.50;91.90;;;;;;4916433;28;93857;-88
2023/09/19 02:50:21;;;;;;;106.68;54.42;;;18.50;92.20;;;;;;4940445;28;89119;-89
2023/09/19 02:52:48;;;;;;;105.65;54.05;;;18.50;91.60;;;;;;4919149;28;89292;-89
2023/09/19 02:55:17;;;;;;;106.90;54.67;;;18.50;91.90;;;;;;4936139;28;93756;-90
2023/09/19 02:57:51;;;;;;;106.90;54.35;;;18.40;92.10;;;;;;4917982;28;94039;-91
2023/09/19 03:00:21;;;;;;;106.13;54.42;;;18.50;92.00;;;;;;4949652;28;90407;-90
2023/09/19 03:02:54;;;;;;;109.72;54.42;;;18.40;92.20;;;;;;4923493;28;90032;-88
2023/09/19 03:05:20;;;;;;;107.45;54.35;;;18.40;92.30;;;;;;4934997;28;92531;-87
2023/09/19 03:07:50;;;;;;;104.90;54.28;;;18.40;92.20;;;;;;4942537;28;90937;-86
2023/09/19 03:10:17;;;;;;;108.13;54.20;;;18.40;92.20;;;;;;4935419;28;89313;-86
2023/09/19 03:12:43;;;;;;;105.30;54.33;;;18.40;92.20;;;;;;4918388;28;89441;-87
2023/09/19 03:15:09;;;;;;;104.97;54.10;;;18.40;92.00;;;;;;4918677;28;95160;-87
2023/09/19 03:17:35;;;;;;;109.57;54.45;;;18.40;92.10;;;;;;4946129;28;91851;-90
2023/09/19 03:20:02;;;;;;;105.00;54.30;;;18.40;92.10;;;;;;4943328;28;91033;-90
2023/09/19 03:22:28;;;;;;;109.03;54.13;;;18.40;92.20;;;;;;4934416;28;89363;-90
2023/09/19 03:24:54;;;;;;;105.72;53.90;;;18.30;92.20;;;;;;4936839;28;90275;-90
2023/09/19 03:27:20;;;;;;;103.55;53.53;;;18.30;92.30;;;;;;4933405;28;89685;-90
2023/09/19 03:29:46;;;;;;;105.70;54.38;;;18.40;92.50;;;;;;4942430;28;89247;-89
2023/09/19 03:32:12;;;;;;;105.30;54.33;;;18.30;92.10;;;;;;4936101;28;90713;-90
2023/09/19 03:34:43;;;;;;;104.35;53.95;;;18.30;92.40;;;;;;4937226;28;89587;-90
2023/09/19 03:37:09;;;;;;;105.60;54.33;;;18.30;92.30;;;;;;4941689;28;93653;-85
2023/09/19 03:39:35;;;;;;;107.20;54.35;;;18.30;92.60;;;;;;4965343;28;90512;-87
2023/09/19 03:42:03;;;;;;;105.80;54.05;;;18.40;92.10;;;;;;4941347;28;89492;-89
2023/09/19 03:44:30;;;;;;;105.03;54.25;;;18.30;92.20;;;;;;4961066;22;92416;-45
2023/09/19 03:46:56;;;;;;;106.95;54.45;;;18.30;92.30;;;;;;4961708;28;94152;-47
2023/09/19 03:49:22;;;;;;;106.32;54.25;;;18.30;92.50;;;;;;4962640;28;90993;-44
2023/09/19 03:51:47;;;;;;;106.47;54.22;;;18.30;92.50;;;;;;4970500;28;90287;-44
2023/09/19 03:54:13;;;;;;;104.88;54.38;;;18.30;92.60;;;;;;4959483;28;90106;-44
2023/09/19 03:59:08;;;;;;;105.03;54.25;;;18.20;92.60;;;;;;4969797;28;89777;-46
2023/09/19 04:01:34;;;;;;;105.55;54.38;;;18.30;92.80;;;;;;4969900;28;88681;-45
2023/09/19 04:04:07;;;;;;;109.38;54.72;;;18.20;92.20;;;;;;4974496;28;90072;-44
2023/09/19 04:06:36;;;;;;;105.50;54.00;;;18.20;92.50;;;;;;4964720;28;92954;-44
2023/09/19 04:09:03;;;;;;;104.18;54.22;;;18.10;92.70;;;;;;4972499;28;91249;-44
2023/09/19 04:11:30;;;;;;;105.50;54.05;;;18.10;93.00;;;;;;4968003;28;90235;-44
2023/09/19 04:13:56;;;;;;;105.20;53.97;;;18.10;92.60;;;;;;4966390;28;90106;-44
2023/09/19 04:16:21;;;;;;;105.15;54.15;;;18.10;92.40;;;;;;4963932;28;90320;-44
2023/09/19 04:18:47;;;;;;;105.45;54.22;;;18.00;92.60;;;;;;4967602;28;89613;-44
2023/09/19 04:21:13;;;;;;;109.60;54.28;;;18.10;92.90;;;;;;4968719;28;89587;-44
2023/09/19 04:23:38;;;;;;;105.93;54.28;;;18.10;92.70;;;;;;4969827;28;89851;-44
2023/09/19 04:26:04;;;;;;;107.97;54.58;;;18.10;92.30;;;;;;4976977;28;88824;-45
2023/09/19 04:28:31;;;;;;;103.30;53.78;;;18.00;92.60;;;;;;4969091;28;92293;-44
2023/09/19 04:30:58;;;;;;;106.05;54.55;;;18.00;92.90;;;;;;4974213;28;89530;-44
2023/09/19 04:33:24;;;;;;;106.07;54.20;;;18.10;92.90;;;;;;4962220;28;90500;-46
2023/09/19 04:35:50;;;;;;;105.50;54.25;;;18.10;92.60;;;;;;4968737;28;94342;-43
2023/09/19 04:41:55;;;;;;;105.75;54.22;;;18.00;92.60;;;;;;4974639;28;90109;-82
2023/09/19 04:45:31;;;;;;;109.03;54.20;;;18.00;92.90;;;;;;4979327;28;90267;-81
2023/09/19 04:48:29;;;;;;;105.57;54.58;;;18.10;92.90;;;;;;4892105;28;89646;-77
2023/09/19 04:51:15;;;;;;;109.70;54.40;;;18.00;93.00;;;;;;4869846;28;89926;-79
2023/09/19 04:53:49;;;;;;;109.32;54.25;;;18.00;92.90;;;;;;4952665;28;88778;-78
2023/09/19 04:56:15;;;;;;;107.55;53.95;;;18.10;92.80;;;;;;4959322;28;92335;-78
2023/09/19 04:59:18;;;;;;;110.75;54.22;;;18.10;93.00;;;;;;4957689;28;89204;-79
2023/09/19 05:02:08;;;;;;;104.57;54.55;;;18.10;93.20;;;;;;4949827;28;90425;-79
2023/09/19 05:04:34;;;;;;;106.03;54.08;;;18.10;93.30;;;;;;4960638;28;90751;-77
2023/09/19 05:07:26;;;;;;;108.53;54.40;;;18.10;93.00;;;;;;4953886;28;91341;-82
2023/09/19 05:09:51;;;;;;;108.82;54.42;;;18.10;93.60;;;;;;4962750;28;90451;-78
2023/09/19 05:12:19;;;;;;;105.35;54.65;;;18.00;93.10;;;;;;4979444;28;89933;-76
2023/09/19 05:14:48;;;;;;;112.82;54.95;;;18.00;93.10;;;;;;4968159;28;93206;-80
2023/09/19 05:17:29;;;;;;;;;;;;;;;;;;;;;
2023/09/19 05:20:06;;;;;;;104.95;54.00;;;18.00;93.60;;;;;;4974614;28;119362;-76
2023/09/19 05:23:07;;;;;;;109.53;54.58;;;18.00;93.30;;;;;;4971904;28;90095;-80
2023/09/19 05:25:37;;;;;;;109.35;54.50;;;18.00;93.10;;;;;;4968226;28;90717;-78
2023/09/19 05:28:17;;;;;;;109.10;55.05;;;18.00;93.80;;;;;;4957609;28;92663;-79
2023/09/19 05:30:48;;;;;;;106.68;54.95;;;18.00;93.40;;;;;;4980655;28;90484;-81
2023/09/19 05:33:14;;;;;;;;;;;18.00;93.70;;;;;;4972992;28;90164;-81
2023/09/19 05:35:48;;;;;;;110.10;54.50;;;18.00;93.50;;;;;;4976597;28;93013;-80
2023/09/19 05:38:18;;;;;;;107.78;55.22;;;18.00;93.80;;;;;;4953199;28;93140;-79
2023/09/19 05:41:18;;;;;;;120.07;57.90;;;18.00;93.90;;;;;;4955049;28;90311;-79
2023/09/19 05:43:50;;;;;;;116.47;56.47;;;18.00;94.60;;;;;;4956864;28;89532;-81
2023/09/19 05:46:41;;;;;;;109.82;56.00;;;18.00;94.20;;;;;;4970437;28;89577;-80
2023/09/19 05:49:15;;;;;;;110.37;55.43;;;18.00;93.90;;;;;;4974256;28;91236;-79
2023/09/19 05:52:06;;;;;;;116.82;56.72;;;18.00;93.30;;;;;;4977486;28;91926;-80
2023/09/19 05:54:34;;;;;;;111.00;55.90;;;18.00;94.40;;;;;;4976531;28;93081;-80
2023/09/19 05:57:15;;;;;;;120.55;57.03;;;18.00;94.50;;;;;;4978802;28;89338;-80
2023/09/19 05:59:43;;;;;;;116.88;57.35;;;18.00;94.30;;;;;;4978801;28;90195;-80
2023/09/19 06:02:19;;;;;;;114.90;55.95;;;18.00;94.50;;;;;;4971641;28;90518;-80
2023/09/19 06:04:49;;;;;;;109.50;55.92;;;18.00;94.20;;;;;;4956092;28;89595;-79
2023/09/19 06:07:43;;;;;;;116.80;55.78;;;18.00;94.40;;;;;;4978655;28;90010;-80
2023/09/19 06:10:13;;;;;;;115.80;55.88;;;18.10;94.40;;;;;;4969724;28;90476;-80
2023/09/19 06:13:09;;;;;;;112.35;55.88;;;18.10;94.20;;;;;;4972516;28;89061;-79
2023/09/19 06:15:47;;;;;;;114.22;55.90;;;18.10;94.00;;;;;;4957558;28;89472;-81
2023/09/19 06:18:19;;;;;;;108.93;55.35;;;18.10;93.70;;;;;;4971687;28;89394;-80
2023/09/19 06:20:46;;;;;;;111.40;55.83;;;18.10;93.80;;;;;;4953327;28;92172;-80
2023/09/19 06:23:12;;;;;;;108.65;55.53;;;18.10;93.80;;;;;;4974962;28;91204;-80
2023/09/19 06:25:46;;;;;;;111.03;55.40;;;18.10;93.80;;;;;;4971110;28;89781;-81
2023/09/19 06:28:14;;;;;;;108.72;55.70;;;18.10;93.80;;;;;;4976053;28;91877;-80
2023/09/19 06:30:44;;;;;;;106.95;55.28;;;18.10;93.50;;;;;;4971757;28;89660;-80
2023/09/19 06:33:20;;;;;;;109.82;55.55;;;18.10;93.40;;;;;;4974089;28;89453;-78
2023/09/19 06:36:04;;;;;;;109.68;55.20;;;18.10;93.90;;;;;;4978831;28;89829;-81
2023/09/19 06:39:17;;;;;;;111.82;55.97;;;18.20;93.40;;;;;;4973535;28;89790;-80
2023/09/19 06:41:49;;;;;;;111.97;55.20;;;18.20;93.40;;;;;;4971130;28;90418;-79
2023/09/19 06:44:15;;;;;;;108.13;55.45;;;18.20;93.40;;;;;;4982319;28;89167;-81
2023/09/19 06:47:16;;;;;;;110.55;55.67;;;18.30;93.40;;;;;;4971901;28;91282;-81
2023/09/19 06:49:44;;;;;;;110.93;55.35;;;18.30;93.00;;;;;;4931318;28;89602;-80
2023/09/19 06:52:19;;;;;;;109.82;55.35;;;18.30;93.50;;;;;;4978379;28;90714;-80
2023/09/19 06:54:50;;;;;;;110.18;55.88;;;18.40;92.60;;;;;;4976519;28;89172;-81
2023/09/19 06:57:40;;;;;;;108.65;55.42;;;18.40;93.20;;;;;;4968606;28;89914;-81
2023/09/19 07:03:21;;;;;;;107.13;55.15;;;18.50;92.40;;;;;;4974027;28;90221;-81
2023/09/19 07:05:50;;;;;;;107.88;55.33;;;18.60;92.30;;;;;;4977060;28;89256;-80
2023/09/19 07:08:15;;;;;;;109.50;55.80;;;18.60;92.60;;;;;;4970045;28;90575;-79
2023/09/19 07:11:24;;;;;;;110.07;55.88;;;18.60;92.30;;;;;;4961369;28;91169;-81
2023/09/19 07:14:18;;;;;;;112.00;55.83;;;18.70;92.10;;;;;;4900412;28;90758;-77
2023/09/19 07:16:47;;;;;;;109.93;55.80;;;18.60;92.10;;;;;;4931150;28;90671;-80
2023/09/19 07:19:16;;;;;;;110.45;55.90;;;18.70;91.90;;;;;;4975183;28;89249;-80
2023/09/19 07:21:47;;;;;;;109.82;55.85;;;18.70;92.10;;;;;;4958333;28;91519;-80
2023/09/19 07:24:36;;;;;;;110.72;55.47;;;18.70;91.60;;;;;;4955243;28;93173;-80
2023/09/19 07:27:49;;;;;;;109.40;55.55;;;18.80;92.00;;;;;;4973193;28;91601;-80
2023/09/19 07:30:16;;;;;;;108.35;55.80;;;18.90;91.50;;;;;;4973035;28;90290;-79
2023/09/19 07:33:14;;;;;;;105.85;54.95;;;18.90;91.30;;;;;;4979092;28;88713;-82
2023/09/19 07:35:48;;;;;;;110.35;55.65;;;18.90;91.20;;;;;;4954122;28;90181;-80
2023/09/19 07:38:14;;;;;;;111.10;55.90;;;19.00;91.50;;;;;;4955452;28;91216;-79
2023/09/19 07:41:15;;;;;;;110.65;55.60;;;19.00;91.20;;;;;;4971765;28;93642;-80
2023/09/19 07:43:40;;;;;;;107.55;55.50;;;19.10;90.90;;;;;;4903964;28;90806;-80
2023/09/19 07:46:18;;;;;;;108.07;55.50;;;19.10;90.60;;;;;;4973501;28;90064;-80
2023/09/19 07:49:19;;;;;;;107.43;55.40;;;19.10;90.80;;;;;;4981841;28;89911;-81
2023/09/19 07:52:17;;;;;;;107.40;55.07;;;19.20;90.40;;;;;;4969098;28;90301;-80
2023/09/19 07:55:19;;;;;;;107.63;55.53;;;19.20;90.30;;;;;;4975018;28;90921;-81
2023/09/19 07:58:07;;;;;;;110.18;56.03;;;19.30;90.30;;;;;;4970391;28;89792;-80
2023/09/19 08:04:46;;;;;;;110.30;55.75;;;19.30;90.30;;;;;;4979505;28;89417;-80
2023/09/19 08:07:29;;;;;;;111.47;55.58;;;19.30;89.60;;;;;;4970194;28;89736;-81
2023/09/19 08:10:15;;;;;;;107.55;55.35;;;19.40;90.10;;;;;;4954982;28;93370;-80
2023/09/19 08:13:21;;;;;;;107.63;55.45;;;19.40;89.80;;;;;;4978785;28;90566;-80
2023/09/19 08:15:47;;;;;;;108.13;55.15;;;19.40;89.70;;;;;;4951781;28;89763;-80
2023/09/19 08:18:48;;;;;;;109.43;56.22;;;19.50;89.80;;;;;;4968813;28;89850;-79
2023/09/19 08:21:19;;;;;;;109.90;55.28;;;19.50;89.10;;;;;;4972484;28;90250;-78
2023/09/19 08:26:44;;;;;;;108.55;55.83;;;19.60;88.70;;;;;;4950289;28;90113;-80
2023/09/19 08:29:44;;;;;;;109.87;56.13;;;19.60;88.30;;;;;;4976516;28;91387;-80
2023/09/19 08:32:16;;;;;;;110.47;55.63;;;19.60;88.50;;;;;;4974367;28;92977;-81
2023/09/19 08:35:10;;;;;;;110.57;55.88;;;19.60;88.40;;;;;;4978410;28;89922;-80
2023/09/19 08:37:55;;;;;;;109.57;55.40;;;19.70;88.10;;;;;;4958595;28;91115;-79
2023/09/19 08:41:18;;;;;;;108.95;55.55;;;19.70;87.70;;;;;;4973231;28;91603;-80
2023/09/19 08:43:44;;;;;;;108.15;55.05;;;19.80;87.80;;;;;;4978841;28;89641;-80
2023/09/19 08:46:15;;;;;;;108.55;55.42;;;19.80;87.40;;;;;;4958630;28;89255;-81
2023/09/19 08:49:00;;;;;;;;;;;19.90;87.00;;;;;;4957175;28;89285;-80
2023/09/19 08:52:39;;;;;;;108.20;55.33;;;19.90;86.90;;;;;;4974289;28;90736;-80
2023/09/19 08:55:21;;;;;;;108.97;55.63;;;19.90;86.20;;;;;;4877916;28;90971;-79
2023/09/19 09:04:13;;;;;;;111.55;55.72;;;20.10;85.50;;;;;;4876215;28;89472;-78
2023/09/19 09:06:40;;;;;;;109.75;55.50;;;20.10;85.60;;;;;;4870556;28;90589;-80
2023/09/19 09:09:15;;;;;;;109.88;55.75;;;20.20;85.40;;;;;;4863060;28;93287;-78
2023/09/19 09:11:43;;;;;;;110.30;55.40;;;20.20;85.10;;;;;;4876941;28;91331;-79
2023/09/19 09:14:34;;;;;;;111.60;55.95;;;20.20;85.00;;;;;;4865261;28;89385;-80
2023/09/19 09:17:01;;;;;;;109.68;55.38;;;20.30;84.90;;;;;;4916785;28;92900;-79
2023/09/19 09:19:36;;;;;;;110.72;55.85;;;20.30;84.70;;;;;;4974451;28;89283;-80
2023/09/19 09:22:44;;;;;;;109.90;55.45;;;20.40;84.50;;;;;;4979464;28;89359;-78
2023/09/19 09:25:19;;;;;;;110.60;55.95;;;20.40;84.20;;;;;;4956072;28;89592;-79
2023/09/19 09:28:00;;;;;;;113.18;55.90;;;20.50;83.60;;;;;;4970550;28;90504;-80
2023/09/19 09:31:17;;;;;;;108.32;55.50;;;20.50;83.50;;;;;;4977511;28;89520;-77
2023/09/19 09:34:13;;;;;;;110.30;55.78;;;20.50;83.30;;;;;;4935555;28;90324;-79
2023/09/19 09:37:14;;;;;;;110.10;55.60;;;20.50;83.50;;;;;;4978364;28;89718;-79
2023/09/19 09:39:40;;;;;;;108.00;55.50;;;20.50;83.30;;;;;;4949513;28;89453;-79
2023/09/19 09:42:09;;;;;;;108.80;55.47;;;20.50;83.20;;;;;;4942746;28;89505;-77
2023/09/19 09:44:43;;;;;;;109.05;55.72;;;20.50;82.70;;;;;;4936861;28;92230;-79
2023/09/19 09:48:03;;;;;;;108.35;55.55;;;20.50;82.60;;;;;;4938793;28;89764;-78
2023/09/19 09:51:03;;;;;;;109.25;55.25;;;20.50;83.10;;;;;;4939313;28;90087;-79
2023/09/19 09:53:32;;;;;;;109.50;55.33;;;20.50;83.40;;;;;;4934102;28;93341;-78
2023/09/19 09:56:14;;;;;;;109.28;55.40;;;20.50;83.00;;;;;;4933563;28;90012;-81
2023/09/19 09:59:35;;;;;;;108.55;55.40;;;20.40;83.20;;;;;;4940089;28;89834;-79
2023/09/19 10:02:47;;;;;;;108.10;55.28;;;20.50;83.50;;;;;;4936722;28;91085;-78
2023/09/19 10:05:49;;;;;;;108.10;55.33;;;20.40;83.20;;;;;;4937154;28;90018;-78
2023/09/19 10:08:19;;;;;;;109.05;55.08;;;20.50;83.60;;;;;;4887524;28;89212;-80
2023/09/19 10:11:04;;;;;;;109.22;55.42;;;20.40;83.70;;;;;;4932960;28;91512;-79
2023/09/19 10:13:41;;;;;;;108.60;55.15;;;20.40;83.80;;;;;;4928700;28;89898;-80
2023/09/19 10:16:17;;;;;;;110.30;55.25;;;20.40;83.80;;;;;;4941447;28;88970;-80
2023/09/19 10:19:15;;;;;;;108.90;55.45;;;20.40;83.50;;;;;;4937276;28;89211;-80
2023/09/19 10:21:45;;;;;;;108.32;55.67;;;20.40;83.60;;;;;;4916819;28;88626;-80
2023/09/19 10:24:17;;;;;;;108.28;55.35;;;20.40;83.50;;;;;;4942027;28;91797;-80
2023/09/19 10:27:00;;;;;;;108.25;54.97;;;20.40;84.00;;;;;;4917628;28;92810;-80
2023/09/19 10:29:59;;;;;;;110.85;55.40;;;20.50;83.70;;;;;;4934269;28;93960;-80
2023/09/19 10:33:14;;;;;;;107.63;55.08;;;20.50;83.80;;;;;;4917628;28;89252;-79
2023/09/19 10:36:11;;;;;;;108.90;55.10;;;20.50;83.40;;;;;;4935988;28;91532;-80
2023/09/19 10:38:43;;;;;;;110.60;55.25;;;20.50;83.30;;;;;;4935631;28;89971;-78
2023/09/19 10:41:31;;;;;;;108.00;55.55;;;20.60;83.20;;;;;;4953774;28;89839;-80
2023/09/19 10:44:32;;;;;;;109.00;55.65;;;20.60;83.10;;;;;;4952998;28;89404;-80
2023/09/19 10:47:25;;;;;;;107.25;55.15;;;20.60;83.00;;;;;;4943875;28;94200;-79
2023/09/19 10:52:50;;;;;;;107.57;55.53;;;20.80;82.70;;;;;;4907680;28;89111;-78
2023/09/19 10:55:19;;;;;;;108.13;55.67;;;20.80;82.40;;;;;;4955485;28;92306;-80
2023/09/19 10:57:48;;;;;;;108.65;55.70;;;20.80;81.90;;;;;;4950402;28;91464;-79
2023/09/19 11:03:44;;;;;;;108.32;55.63;;;20.90;81.90;;;;;;4957844;28;89200;-80
2023/09/19 11:07:09;;;;;;;;;;;;;;;;;;;;;
2023/09/19 11:10:17;;;;;;;108.75;55.45;;;21.10;81.20;;;;;;4951745;28;118505;-80
2023/09/19 11:12:49;;;;;;;109.13;55.40;;;21.10;80.80;;;;;;4899241;28;93393;-80
2023/09/19 11:16:03;;;;;;;108.32;55.20;;;21.20;80.40;;;;;;4893446;28;91305;-80
2023/09/19 11:18:45;;;;;;;110.07;55.60;;;21.20;80.40;;;;;;4945838;28;91178;-80
2023/09/19 11:21:35;;;;;;;110.22;55.45;;;21.30;80.10;;;;;;4952905;28;91920;-79
2023/09/19 11:24:30;;;;;;;109.10;55.75;;;21.40;79.90;;;;;;4959919;28;89939;-81
2023/09/19 11:27:56;;;;;;;109.80;55.47;;;21.40;79.30;;;;;;4941048;28;90700;-80
2023/09/19 11:31:22;;;;;;;110.43;55.92;;;21.50;79.70;;;;;;4897069;28;89927;-80
2023/09/19 11:34:17;;;;;;;110.63;55.55;;;21.60;79.00;;;;;;4889364;28;89828;-78
2023/09/19 11:36:45;;;;;;;111.85;56.47;;;21.80;78.50;;;;;;4957024;28;91562;-80
2023/09/19 11:39:41;;;;;;;110.43;56.50;;;21.80;78.30;;;;;;4946255;28;88937;-80
2023/09/19 11:43:13;;;;;;;109.90;56.17;;;21.90;78.10;;;;;;4931518;28;91553;-79
2023/09/19 11:45:46;;;;;;;;;;;21.90;78.00;;;;;;4957329;28;91229;-80
2023/09/19 11:48:42;;;;;;;112.82;56.42;;;22.00;77.70;;;;;;4951738;28;88843;-79
2023/09/19 11:51:48;;;;;;;110.43;56.20;;;22.10;77.70;;;;;;4920466;28;89366;-78
2023/09/19 11:57:35;;;;;;;113.00;56.63;;;22.10;76.50;;;;;;4874942;28;91725;-80
2023/09/19 12:00:10;;;;;;;112.05;56.38;;;22.10;76.90;;;;;;4880120;28;90486;-80
2023/09/19 12:06:16;;;;;;;109.53;55.72;;;22.20;77.00;;;;;;4828191;28;90622;-79
2023/09/19 12:09:24;;;;;;;112.10;56.65;;;22.10;76.40;;;;;;4873863;28;89961;-80
2023/09/19 12:12:45;;;;;;;110.18;56.10;;;22.10;76.30;;;;;;4912417;28;90652;-80
2023/09/19 12:15:45;;;;;;;110.35;56.15;;;22.20;76.30;;;;;;4894302;28;90373;-81
2023/09/19 12:21:31;;;;;;;110.80;55.65;;;22.00;76.10;;;;;;4914536;28;90675;-78
2023/09/19 12:27:20;;;;;;;110.53;55.65;;;22.00;76.90;;;;;;4893554;28;90823;-80
2023/09/19 12:30:00;;;;;;;;;;;;;;;;;;;;;
2023/09/19 12:32:45;;;;;;;110.88;56.15;;;21.90;77.10;;;;;;4951522;28;118813;-80
2023/09/19 12:35:30;;;;;;;111.10;56.10;;;21.90;77.20;;;;;;4951520;28;89350;-79
2023/09/19 12:38:11;;;;;;;109.45;55.97;;;22.00;78.10;;;;;;4960310;28;89233;-81
2023/09/19 12:41:08;;;;;;;112.80;56.08;;;22.00;77.10;;;;;;4950657;28;90550;-80
2023/09/19 12:43:43;;;;;;;111.03;56.22;;;22.00;77.10;;;;;;4949268;28;90965;-80
2023/09/19 12:46:46;;;;;;;110.10;55.72;;;22.00;76.90;;;;;;4959281;28;90493;-81
2023/09/19 12:49:27;;;;;;;110.50;56.38;;;22.00;77.00;;;;;;4960519;28;92604;-81
2023/09/19 12:52:02;;;;;;;;;;;22.00;76.80;;;;;;4959832;28;91653;-81
2023/09/19 12:54:45;;;;;;;110.68;56.13;;;22.00;76.90;;;;;;4939110;28;92242;-80
2023/09/19 12:57:32;;;;;;;108.75;55.92;;;22.00;76.80;;;;;;4937870;28;91295;-80
2023/09/19 13:00:07;;;;;;;112.20;55.97;;;22.00;76.70;;;;;;4935697;28;89908;-81
2023/09/19 13:03:01;;;;;;;110.40;56.25;;;22.10;76.50;;;;;;4929853;28;89923;-81
2023/09/19 13:05:55;;;;;;;111.03;56.13;;;22.10;76.30;;;;;;4926511;28;91312;-81
2023/09/19 13:09:00;;;;;;;108.78;55.88;;;22.00;76.50;;;;;;4939302;28;89581;-80
2023/09/19 13:12:07;;;;;;;110.30;56.33;;;22.00;76.40;;;;;;4919785;28;88783;-81
2023/09/19 13:14:48;;;;;;;110.32;55.90;;;22.00;76.30;;;;;;4922833;28;88710;-81
2023/09/19 13:17:39;;;;;;;110.97;55.97;;;22.00;76.60;;;;;;4936624;28;92385;-80
2023/09/19 13:20:15;;;;;;;108.93;55.63;;;22.00;76.90;;;;;;4884328;28;91446;-80
2023/09/19 13:23:10;;;;;;;110.22;56.15;;;22.00;76.70;;;;;;4922572;28;91342;-81
2023/09/19 13:25:47;;;;;;;108.00;55.63;;;22.10;76.70;;;;;;4936766;28;89537;-81
2023/09/19 13:28:58;;;;;;;109.50;55.83;;;22.10;76.50;;;;;;4945023;28;89820;-77
2023/09/19 13:31:42;;;;;;;109.20;55.78;;;22.10;76.50;;;;;;4931022;28;92290;-80
2023/09/19 13:34:16;;;;;;;111.35;56.22;;;22.20;76.20;;;;;;4951266;28;89391;-81
2023/09/19 13:36:48;;;;;;;108.95;55.92;;;22.20;75.80;;;;;;4945397;28;89937;-81
2023/09/19 13:39:17;;;;;;;109.65;55.75;;;22.20;76.00;;;;;;4939702;28;89961;-81
2023/09/19 13:41:47;;;;;;;113.95;55.95;;;22.20;76.00;;;;;;4937870;28;89000;-79
2023/09/19 13:44:46;;;;;;;110.43;56.10;;;22.20;76.00;;;;;;4949197;28;89437;-80
2023/09/19 13:47:25;;;;;;;110.95;55.78;;;22.20;75.90;;;;;;4960168;28;90158;-79
2023/09/19 13:49:57;;;;;;;109.85;56.08;;;22.20;76.00;;;;;;4950889;28;91508;-80
2023/09/19 13:52:23;;;;;;;109.15;55.90;;;22.20;75.90;;;;;;4948765;28;89838;-80
2023/09/19 13:55:10;;;;;;;110.05;56.05;;;22.20;76.10;;;;;;4957260;28;89440;-80
2023/09/19 13:57:43;;;;;;;109.65;56.05;;;22.20;76.00;;;;;;4950048;28;89641;-80
2023/09/19 14:00:17;;;;;;;109.25;56.03;;;22.20;76.00;;;;;;4958567;28;91398;-80
2023/09/19 14:02:58;;;;;;;109.22;55.85;;;22.10;76.20;;;;;;4957573;28;91019;-80
2023/09/19 14:05:28;;;;;;;108.68;55.75;;;22.10;76.40;;;;;;4938599;28;91070;-81
2023/09/19 14:08:30;;;;;;;109.38;55.63;;;22.10;76.60;;;;;;4958347;28;90431;-80